sensor_id;sensor_type;location;lat;lon;timestamp;pressure;altitude;pressure_sealevel;temperature;humidity
83664;BME280;73634;47.068;15.426;2024-02-21T00:02:02;98366.81;;;3.47;66.59
83664;BME280;73634;47.068;15.426;2024-02-21T00:04:27;98372.00;;;3.40;66.56
83664;BME280;73634;47.068;15.426;2024-02-21T00:06:53;98371.22;;;3.40;67.08
83664;BME280;73634;47.068;15.426;2024-02-21T00:09:18;98366.03;;;3.46;66.25
83664;BME280;73634;47.068;15.426;2024-02-21T00:14:16;98365.50;;;3.38;66.97
83664;BME280;73634;47.068;15.426;2024-02-21T00:16:42;98358.75;;;3.37;66.82
83664;BME280;73634;47.068;15.426;2024-02-21T00:19:07;98361.53;;;3.35;67.15
83664;BME280;73634;47.068;15.426;2024-02-21T00:21:32;98357.19;;;3.35;66.84
83664;BME280;73634;47.068;15.426;2024-02-21T00:23:58;98365.91;;;3.34;67.03
83664;BME280;73634;47.068;15.426;2024-02-21T00:26:23;98361.00;;;3.26;67.40
83664;BME280;73634;47.068;15.426;2024-02-21T00:28:48;98363.41;;;3.21;67.37
83664;BME280;73634;47.068;15.426;2024-02-21T00:31:14;98362.56;;;3.27;67.28
83664;BME280;73634;47.068;15.426;2024-02-21T00:33:39;98358.63;;;3.25;67.15
83664;BME280;73634;47.068;15.426;2024-02-21T00:38:26;98364.31;;;3.33;67.38
83664;BME280;73634;47.068;15.426;2024-02-21T00:40:52;98352.41;;;3.39;67.02
83664;BME280;73634;47.068;15.426;2024-02-21T00:43:17;98353.38;;;3.45;66.37
83664;BME280;73634;47.068;15.426;2024-02-21T00:45:42;98355.13;;;3.51;66.16
83664;BME280;73634;47.068;15.426;2024-02-21T00:48:08;98356.84;;;3.57;66.46
83664;BME280;73634;47.068;15.426;2024-02-21T00:50:33;98356.13;;;3.50;66.67
83664;BME280;73634;47.068;15.426;2024-02-21T00:52:58;98355.06;;;3.57;66.42
83664;BME280;73634;47.068;15.426;2024-02-21T00:55:24;98348.94;;;3.58;66.43
83664;BME280;73634;47.068;15.426;2024-02-21T00:57:49;98352.50;;;3.57;66.80
83664;BME280;73634;47.068;15.426;2024-02-21T01:00:15;98347.56;;;3.56;66.45
83664;BME280;73634;47.068;15.426;2024-02-21T01:03:52;98348.34;;;3.56;66.81
83664;BME280;73634;47.068;15.426;2024-02-21T01:06:20;98348.94;;;3.58;66.95
83664;BME280;73634;47.068;15.426;2024-02-21T01:08:46;98355.06;;;3.57;66.80
83664;BME280;73634;47.068;15.426;2024-02-21T01:11:13;98351.00;;;3.68;66.43
83664;BME280;73634;47.068;15.426;2024-02-21T01:13:38;98340.81;;;3.80;66.30
83664;BME280;73634;47.068;15.426;2024-02-21T01:16:03;98339.25;;;3.79;66.34
83664;BME280;73634;47.068;15.426;2024-02-21T01:18:29;98335.31;;;3.76;66.26
83664;BME280;73634;47.068;15.426;2024-02-21T01:20:54;98337.09;;;3.76;66.89
83664;BME280;73634;47.068;15.426;2024-02-21T01:23:20;98333.91;;;3.80;66.66
83664;BME280;73634;47.068;15.426;2024-02-21T01:25:45;98329.91;;;3.84;66.82
83664;BME280;73634;47.068;15.426;2024-02-21T01:29:33;98339.03;;;3.80;66.62
83664;BME280;73634;47.068;15.426;2024-02-21T01:31:58;98344.97;;;3.81;66.62
83664;BME280;73634;47.068;15.426;2024-02-21T01:34:24;98336.34;;;3.68;67.29
83664;BME280;73634;47.068;15.426;2024-02-21T01:36:49;98334.72;;;3.74;67.09
83664;BME280;73634;47.068;15.426;2024-02-21T01:39:15;98328.44;;;3.70;66.88
83664;BME280;73634;47.068;15.426;2024-02-21T01:41:41;98333.22;;;3.66;66.95
83664;BME280;73634;47.068;15.426;2024-02-21T01:44:06;98332.16;;;3.74;66.54
83664;BME280;73634;47.068;15.426;2024-02-21T01:46:32;98332.47;;;3.84;66.78
83664;BME280;73634;47.068;15.426;2024-02-21T01:48:57;98330.44;;;3.68;67.28
83664;BME280;73634;47.068;15.426;2024-02-21T01:51:26;98329.38;;;3.76;66.48
83664;BME280;73634;47.068;15.426;2024-02-21T01:56:00;98332.84;;;3.63;66.51
83664;BME280;73634;47.068;15.426;2024-02-21T01:58:26;98325.03;;;3.76;66.68
83664;BME280;73634;47.068;15.426;2024-02-21T02:00:53;98323.97;;;3.84;65.64
83664;BME280;73634;47.068;15.426;2024-02-21T02:03:19;98317.41;;;3.88;66.01
83664;BME280;73634;47.068;15.426;2024-02-21T02:05:49;98316.97;;;3.66;66.51
83664;BME280;73634;47.068;15.426;2024-02-21T02:08:17;98316.34;;;3.71;66.81
83664;BME280;73634;47.068;15.426;2024-02-21T02:10:44;98310.16;;;3.78;65.98
83664;BME280;73634;47.068;15.426;2024-02-21T02:13:10;98299.44;;;3.81;65.98
83664;BME280;73634;47.068;15.426;2024-02-21T02:15:41;98306.91;;;3.64;66.53
83664;BME280;73634;47.068;15.426;2024-02-21T02:20:10;98291.88;;;3.61;66.65
83664;BME280;73634;47.068;15.426;2024-02-21T02:22:37;98291.66;;;3.63;66.95
83664;BME280;73634;47.068;15.426;2024-02-21T02:25:04;98296.25;;;3.61;66.76
83664;BME280;73634;47.068;15.426;2024-02-21T02:27:29;98305.22;;;3.77;65.97
83664;BME280;73634;47.068;15.426;2024-02-21T02:29:55;98291.13;;;3.79;66.24
83664;BME280;73634;47.068;15.426;2024-02-21T02:32:20;98312.63;;;3.66;66.59
83664;BME280;73634;47.068;15.426;2024-02-21T02:34:46;98303.84;;;3.74;66.60
83664;BME280;73634;47.068;15.426;2024-02-21T02:37:11;98291.41;;;3.71;66.19
83664;BME280;73634;47.068;15.426;2024-02-21T02:39:36;98297.28;;;3.78;65.98
83664;BME280;73634;47.068;15.426;2024-02-21T02:44:39;98294.59;;;3.91;65.29
83664;BME280;73634;47.068;15.426;2024-02-21T02:47:04;98287.44;;;3.93;65.32
83664;BME280;73634;47.068;15.426;2024-02-21T02:49:29;98287.81;;;3.97;64.73
83664;BME280;73634;47.068;15.426;2024-02-21T02:51:55;98287.34;;;4.00;64.99
83664;BME280;73634;47.068;15.426;2024-02-21T02:54:20;98280.41;;;4.00;64.94
83664;BME280;73634;47.068;15.426;2024-02-21T02:56:45;98272.69;;;4.00;65.03
83664;BME280;73634;47.068;15.426;2024-02-21T02:59:11;98280.22;;;3.84;65.86
83664;BME280;73634;47.068;15.426;2024-02-21T03:01:37;98282.94;;;3.89;65.74
83664;BME280;73634;47.068;15.426;2024-02-21T03:04:03;98287.28;;;4.07;65.56
83664;BME280;73634;47.068;15.426;2024-02-21T03:09:05;98270.13;;;4.00;65.68
83664;BME280;73634;47.068;15.426;2024-02-21T03:11:33;98270.69;;;3.84;66.76
83664;BME280;73634;47.068;15.426;2024-02-21T03:13:59;98271.50;;;3.85;67.08
83664;BME280;73634;47.068;15.426;2024-02-21T03:16:24;98267.97;;;3.79;67.21
83664;BME280;73634;47.068;15.426;2024-02-21T03:18:50;98268.34;;;3.83;67.62
83664;BME280;73634;47.068;15.426;2024-02-21T03:21:15;98271.28;;;3.86;66.73
83664;BME280;73634;47.068;15.426;2024-02-21T03:23:40;98266.13;;;3.86;66.88
83664;BME280;73634;47.068;15.426;2024-02-21T03:26:06;98272.84;;;3.87;66.92
83664;BME280;73634;47.068;15.426;2024-02-21T03:28:31;98275.84;;;3.84;66.78
83664;BME280;73634;47.068;15.426;2024-02-21T03:33:46;98274.53;;;3.75;67.41
83664;BME280;73634;47.068;15.426;2024-02-21T03:36:15;98278.41;;;3.84;66.73
83664;BME280;73634;47.068;15.426;2024-02-21T03:38:43;98275.56;;;3.92;67.33
83664;BME280;73634;47.068;15.426;2024-02-21T03:41:08;98272.13;;;3.80;66.52
83664;BME280;73634;47.068;15.426;2024-02-21T03:43:34;98275.22;;;3.46;68.29
83664;BME280;73634;47.068;15.426;2024-02-21T03:45:59;98274.31;;;3.58;67.94
83664;BME280;73634;47.068;15.426;2024-02-21T03:48:24;98275.22;;;3.64;67.49
83664;BME280;73634;47.068;15.426;2024-02-21T03:50:50;98275.94;;;3.53;67.60
83664;BME280;73634;47.068;15.426;2024-02-21T03:53:15;98269.63;;;3.24;68.48
83664;BME280;73634;47.068;15.426;2024-02-21T03:58:28;98263.44;;;3.07;68.82
83664;BME280;73634;47.068;15.426;2024-02-21T04:00:54;98262.66;;;3.06;68.98
83664;BME280;73634;47.068;15.426;2024-02-21T04:03:19;98258.66;;;3.10;68.85
83664;BME280;73634;47.068;15.426;2024-02-21T04:05:44;98266.69;;;3.20;68.76
83664;BME280;73634;47.068;15.426;2024-02-21T04:08:10;98261.03;;;3.37;68.17
83664;BME280;73634;47.068;15.426;2024-02-21T04:10:35;98263.34;;;3.45;67.37
83664;BME280;73634;47.068;15.426;2024-02-21T04:13:00;98263.28;;;3.51;66.96
83664;BME280;73634;47.068;15.426;2024-02-21T04:15:26;98265.03;;;3.57;67.42
83664;BME280;73634;47.068;15.426;2024-02-21T04:17:51;98250.28;;;3.64;67.24
83664;BME280;73634;47.068;15.426;2024-02-21T04:20:18;98265.34;;;3.61;66.67
83664;BME280;73634;47.068;15.426;2024-02-21T04:25:08;98253.59;;;3.72;67.25
83664;BME280;73634;47.068;15.426;2024-02-21T04:27:34;98251.97;;;3.77;67.22
83664;BME280;73634;47.068;15.426;2024-02-21T04:29:59;98248.97;;;3.80;67.15
83664;BME280;73634;47.068;15.426;2024-02-21T04:32:24;98248.16;;;3.80;67.55
83664;BME280;73634;47.068;15.426;2024-02-21T04:34:52;98245.66;;;3.73;67.93
83664;BME280;73634;47.068;15.426;2024-02-21T04:37:17;98250.59;;;3.75;67.94
83664;BME280;73634;47.068;15.426;2024-02-21T04:39:43;98246.81;;;3.77;68.55
83664;BME280;73634;47.068;15.426;2024-02-21T04:42:08;98243.72;;;3.68;68.47
83664;BME280;73634;47.068;15.426;2024-02-21T04:44:33;98248.66;;;3.70;68.90
83664;BME280;73634;47.068;15.426;2024-02-21T04:49:35;98238.50;;;3.75;68.65
83664;BME280;73634;47.068;15.426;2024-02-21T04:52:01;98242.50;;;3.71;68.28
83664;BME280;73634;47.068;15.426;2024-02-21T04:54:27;98242.50;;;3.71;67.82
83664;BME280;73634;47.068;15.426;2024-02-21T04:56:52;98244.56;;;3.62;68.31
83664;BME280;73634;47.068;15.426;2024-02-21T04:59:17;98239.09;;;3.59;68.22
83664;BME280;73634;47.068;15.426;2024-02-21T05:01:43;98241.13;;;3.50;69.04
83664;BME280;73634;47.068;15.426;2024-02-21T05:04:08;98236.94;;;3.56;68.43
83664;BME280;73634;47.068;15.426;2024-02-21T05:06:40;98237.84;;;3.61;68.04
83664;BME280;73634;47.068;15.426;2024-02-21T05:09:07;98240.28;;;3.56;68.02
83664;BME280;73634;47.068;15.426;2024-02-21T05:14:10;98242.44;;;3.59;67.42
83664;BME280;73634;47.068;15.426;2024-02-21T05:16:35;98235.84;;;3.63;67.43
83664;BME280;73634;47.068;15.426;2024-02-21T05:19:01;98236.78;;;3.51;68.31
83664;BME280;73634;47.068;15.426;2024-02-21T05:21:26;98235.78;;;3.52;67.69
83664;BME280;73634;47.068;15.426;2024-02-21T05:23:53;98235.56;;;3.53;67.91
83664;BME280;73634;47.068;15.426;2024-02-21T05:26:22;98236.00;;;3.50;67.78
83664;BME280;73634;47.068;15.426;2024-02-21T05:28:48;98241.56;;;3.47;67.71
83664;BME280;73634;47.068;15.426;2024-02-21T05:31:17;98241.75;;;3.46;68.03
83664;BME280;73634;47.068;15.426;2024-02-21T05:33:43;98235.84;;;3.45;68.22
83664;BME280;73634;47.068;15.426;2024-02-21T05:36:09;98239.47;;;3.38;68.67
83664;BME280;73634;47.068;15.426;2024-02-21T05:39:52;98228.00;;;3.33;69.06
83664;BME280;73634;47.068;15.426;2024-02-21T05:42:17;98227.84;;;3.28;68.58
83664;BME280;73634;47.068;15.426;2024-02-21T05:44:42;98227.91;;;3.22;69.46
83664;BME280;73634;47.068;15.426;2024-02-21T05:47:08;98234.19;;;3.26;69.28
83664;BME280;73634;47.068;15.426;2024-02-21T05:49:35;98231.84;;;3.24;69.56
83664;BME280;73634;47.068;15.426;2024-02-21T05:52:01;98239.94;;;3.28;69.14
83664;BME280;73634;47.068;15.426;2024-02-21T05:54:26;98233.41;;;3.25;69.61
83664;BME280;73634;47.068;15.426;2024-02-21T05:56:51;98231.06;;;3.24;69.31
83664;BME280;73634;47.068;15.426;2024-02-21T05:59:18;98242.19;;;3.18;70.43
83664;BME280;73634;47.068;15.426;2024-02-21T06:04:18;98234.63;;;3.23;70.67
83664;BME280;73634;47.068;15.426;2024-02-21T06:06:43;98235.00;;;3.26;70.69
83664;BME280;73634;47.068;15.426;2024-02-21T06:09:08;98231.41;;;3.27;70.11
83664;BME280;73634;47.068;15.426;2024-02-21T06:11:34;98225.69;;;3.25;70.52
83664;BME280;73634;47.068;15.426;2024-02-21T06:14:02;98222.13;;;3.26;70.49
83664;BME280;73634;47.068;15.426;2024-02-21T06:16:28;98213.78;;;3.31;70.34
83664;BME280;73634;47.068;15.426;2024-02-21T06:18:53;98214.38;;;3.33;70.17
83664;BME280;73634;47.068;15.426;2024-02-21T06:21:18;98220.81;;;3.42;69.86
83664;BME280;73634;47.068;15.426;2024-02-21T06:23:44;98214.25;;;3.46;69.65
83664;BME280;73634;47.068;15.426;2024-02-21T06:28:41;98215.47;;;3.62;68.69
83664;BME280;73634;47.068;15.426;2024-02-21T06:31:08;98223.69;;;3.52;68.89
83664;BME280;73634;47.068;15.426;2024-02-21T06:33:33;98228.38;;;3.80;69.55
83664;BME280;73634;47.068;15.426;2024-02-21T06:35:58;98225.72;;;4.05;68.83
83664;BME280;73634;47.068;15.426;2024-02-21T06:38:23;98227.00;;;4.32;67.74
83664;BME280;73634;47.068;15.426;2024-02-21T06:40:49;98226.38;;;4.49;66.71
83664;BME280;73634;47.068;15.426;2024-02-21T06:43:18;98232.28;;;4.67;64.70
83664;BME280;73634;47.068;15.426;2024-02-21T06:45:44;98229.13;;;4.65;65.03
83664;BME280;73634;47.068;15.426;2024-02-21T06:48:12;98239.81;;;5.46;62.53
83664;BME280;73634;47.068;15.426;2024-02-21T06:52:51;98236.94;;;7.53;54.16
83664;BME280;73634;47.068;15.426;2024-02-21T06:55:16;98243.50;;;6.93;56.72
83664;BME280;73634;47.068;15.426;2024-02-21T06:57:42;98244.16;;;6.03;58.75
83664;BME280;73634;47.068;15.426;2024-02-21T07:00:08;98248.44;;;5.75;60.00
83664;BME280;73634;47.068;15.426;2024-02-21T07:02:34;98249.34;;;5.68;60.79
83664;BME280;73634;47.068;15.426;2024-02-21T07:04:59;98239.56;;;5.82;59.29
83664;BME280;73634;47.068;15.426;2024-02-21T07:07:25;98241.84;;;5.90;59.66
83664;BME280;73634;47.068;15.426;2024-02-21T07:09:50;98230.06;;;6.34;58.20
83664;BME280;73634;47.068;15.426;2024-02-21T07:12:16;98233.31;;;7.37;54.55
83664;BME280;73634;47.068;15.426;2024-02-21T07:16:47;98231.81;;;8.40;51.39
83664;BME280;73634;47.068;15.426;2024-02-21T07:19:12;98235.41;;;8.34;51.01
83664;BME280;73634;47.068;15.426;2024-02-21T07:21:38;98230.13;;;7.68;52.83
83664;BME280;73634;47.068;15.426;2024-02-21T07:24:06;98233.00;;;7.00;55.08
83664;BME280;73634;47.068;15.426;2024-02-21T07:26:31;98236.09;;;6.68;56.46
83664;BME280;73634;47.068;15.426;2024-02-21T07:28:57;98231.16;;;6.67;56.22
83664;BME280;73634;47.068;15.426;2024-02-21T07:31:22;98222.44;;;6.28;57.27
83664;BME280;73634;47.068;15.426;2024-02-21T07:33:48;98220.88;;;6.27;57.89
83664;BME280;73634;47.068;15.426;2024-02-21T07:36:15;98225.84;;;6.45;57.14
83664;BME280;73634;47.068;15.426;2024-02-21T07:41:59;98214.03;;;6.49;57.32
83664;BME280;73634;47.068;15.426;2024-02-21T07:44:25;98224.94;;;6.80;56.57
83664;BME280;73634;47.068;15.426;2024-02-21T07:46:50;98220.25;;;7.10;56.47
83664;BME280;73634;47.068;15.426;2024-02-21T07:49:16;98219.28;;;7.50;54.04
83664;BME280;73634;47.068;15.426;2024-02-21T07:51:41;98203.94;;;7.65;53.02
83664;BME280;73634;47.068;15.426;2024-02-21T07:54:09;98199.78;;;8.08;52.00
83664;BME280;73634;47.068;15.426;2024-02-21T07:56:34;98192.69;;;9.00;49.12
83664;BME280;73634;47.068;15.426;2024-02-21T07:59:00;98201.72;;;8.93;50.07
83664;BME280;73634;47.068;15.426;2024-02-21T08:01:25;98203.84;;;9.38;48.78
83664;BME280;73634;47.068;15.426;2024-02-21T08:03:51;98188.88;;;10.13;45.88
83664;BME280;73634;47.068;15.426;2024-02-21T08:08:10;98179.81;;;13.10;38.65
83664;BME280;73634;47.068;15.426;2024-02-21T08:10:35;98170.13;;;15.60;33.99
83664;BME280;73634;47.068;15.426;2024-02-21T08:13:00;98181.91;;;16.76;30.87
83664;BME280;73634;47.068;15.426;2024-02-21T08:15:26;98176.47;;;15.86;30.75
83664;BME280;73634;47.068;15.426;2024-02-21T08:17:57;98182.94;;;13.65;35.60
83664;BME280;73634;47.068;15.426;2024-02-21T08:20:26;98184.25;;;11.77;39.92
83664;BME280;73634;47.068;15.426;2024-02-21T08:22:52;98179.94;;;13.53;37.11
83664;BME280;73634;47.068;15.426;2024-02-21T08:25:17;98168.56;;;14.29;35.02
83664;BME280;73634;47.068;15.426;2024-02-21T08:27:42;98173.16;;;13.52;35.32
83664;BME280;73634;47.068;15.426;2024-02-21T08:30:08;98173.97;;;13.95;34.24
83664;BME280;73634;47.068;15.426;2024-02-21T08:33:51;98171.16;;;13.15;35.76
83664;BME280;73634;47.068;15.426;2024-02-21T08:36:20;98172.91;;;12.07;38.03
83664;BME280;73634;47.068;15.426;2024-02-21T08:38:46;98172.22;;;11.91;38.27
83664;BME280;73634;47.068;15.426;2024-02-21T08:41:11;98168.81;;;12.40;37.67
83664;BME280;73634;47.068;15.426;2024-02-21T08:43:37;98160.22;;;15.84;31.43
83664;BME280;73634;47.068;15.426;2024-02-21T08:46:03;98145.22;;;18.29;27.27
83664;BME280;73634;47.068;15.426;2024-02-21T08:48:28;98145.22;;;20.57;24.20
83664;BME280;73634;47.068;15.426;2024-02-21T08:50:54;98155.81;;;21.48;22.92
83664;BME280;73634;47.068;15.426;2024-02-21T08:53:19;98158.84;;;20.26;24.13
83664;BME280;73634;47.068;15.426;2024-02-21T08:57:47;98155.13;;;23.55;20.04
83664;BME280;73634;47.068;15.426;2024-02-21T09:00:13;98156.84;;;22.88;19.89
83664;BME280;73634;47.068;15.426;2024-02-21T09:02:40;98145.72;;;24.89;17.83
83664;BME280;73634;47.068;15.426;2024-02-21T09:05:08;98149.97;;;21.79;20.85
83664;BME280;73634;47.068;15.426;2024-02-21T09:07:33;98155.72;;;17.63;25.55
83664;BME280;73634;47.068;15.426;2024-02-21T09:09:58;98152.88;;;16.45;28.96
83664;BME280;73634;47.068;15.426;2024-02-21T09:12:24;98157.06;;;15.27;30.02
83664;BME280;73634;47.068;15.426;2024-02-21T09:14:49;98156.31;;;16.90;28.41
83664;BME280;73634;47.068;15.426;2024-02-21T09:17:16;98144.91;;;18.65;25.32
83664;BME280;73634;47.068;15.426;2024-02-21T09:19:42;98144.06;;;16.63;28.04
83664;BME280;73634;47.068;15.426;2024-02-21T09:24:05;98139.09;;;19.06;25.18
83664;BME280;73634;47.068;15.426;2024-02-21T09:26:30;98134.38;;;18.65;25.10
83664;BME280;73634;47.068;15.426;2024-02-21T09:28:56;98137.97;;;15.82;29.61
83664;BME280;73634;47.068;15.426;2024-02-21T09:31:21;98141.03;;;14.50;31.49
83664;BME280;73634;47.068;15.426;2024-02-21T09:33:46;98135.94;;;14.40;31.83
83664;BME280;73634;47.068;15.426;2024-02-21T09:36:12;98142.72;;;13.61;33.65
83664;BME280;73634;47.068;15.426;2024-02-21T09:42:05;98134.72;;;11.77;36.52
83664;BME280;73634;47.068;15.426;2024-02-21T09:44:38;98130.63;;;11.56;36.77
83664;BME280;73634;47.068;15.426;2024-02-21T09:49:33;98126.31;;;11.90;36.02
83664;BME280;73634;47.068;15.426;2024-02-21T09:52:01;98119.31;;;11.86;36.35
83664;BME280;73634;47.068;15.426;2024-02-21T09:54:30;98119.16;;;11.57;37.00
83664;BME280;73634;47.068;15.426;2024-02-21T09:57:02;98121.44;;;12.23;35.58
83664;BME280;73634;47.068;15.426;2024-02-21T09:59:28;98124.59;;;12.20;35.03
83664;BME280;73634;47.068;15.426;2024-02-21T10:01:55;98120.97;;;12.16;34.75
83664;BME280;73634;47.068;15.426;2024-02-21T10:04:21;98113.34;;;11.80;35.21
83664;BME280;73634;47.068;15.426;2024-02-21T10:06:47;98115.75;;;12.16;34.48
83664;BME280;73634;47.068;15.426;2024-02-21T10:09:28;98113.09;;;12.26;34.71
83664;BME280;73634;47.068;15.426;2024-02-21T10:13:33;98107.78;;;13.76;31.41
83664;BME280;73634;47.068;15.426;2024-02-21T10:16:06;98106.97;;;13.56;32.44
83664;BME280;73634;47.068;15.426;2024-02-21T10:18:32;98102.16;;;13.63;31.20
83664;BME280;73634;47.068;15.426;2024-02-21T10:21:05;98095.97;;;16.76;27.82
83664;BME280;73634;47.068;15.426;2024-02-21T10:23:45;98085.81;;;22.38;20.90
83664;BME280;73634;47.068;15.426;2024-02-21T10:26:11;98076.94;;;19.26;23.08
83664;BME280;73634;47.068;15.426;2024-02-21T10:28:37;98089.38;;;17.18;26.10
83664;BME280;73634;47.068;15.426;2024-02-21T10:31:07;98078.13;;;19.08;23.89
83664;BME280;73634;47.068;15.426;2024-02-21T10:33:32;98074.38;;;21.81;19.96
83664;BME280;73634;47.068;15.426;2024-02-21T10:38:59;98072.78;;;18.78;22.46
83664;BME280;73634;47.068;15.426;2024-02-21T10:41:25;98074.78;;;16.73;26.16
83664;BME280;73634;47.068;15.426;2024-02-21T10:43:53;98063.47;;;15.55;28.21
83664;BME280;73634;47.068;15.426;2024-02-21T10:46:21;98067.38;;;13.20;32.25
83664;BME280;73634;47.068;15.426;2024-02-21T10:48:50;98065.97;;;12.46;33.51
83664;BME280;73634;47.068;15.426;2024-02-21T10:51:19;98050.22;;;14.13;31.22
83664;BME280;73634;47.068;15.426;2024-02-21T10:56:22;98026.22;;;18.27;24.69
83664;BME280;73634;47.068;15.426;2024-02-21T10:58:52;98020.94;;;19.50;23.32
83664;BME280;73634;47.068;15.426;2024-02-21T11:03:43;98028.38;;;20.31;22.26
83664;BME280;73634;47.068;15.426;2024-02-21T11:06:10;98011.03;;;19.47;22.94
83664;BME280;73634;47.068;15.426;2024-02-21T11:08:37;98010.91;;;19.64;23.20
83664;BME280;73634;47.068;15.426;2024-02-21T11:11:04;98011.84;;;17.81;25.54
83664;BME280;73634;47.068;15.426;2024-02-21T11:13:36;98005.38;;;20.77;22.31
83664;BME280;73634;47.068;15.426;2024-02-21T11:16:21;97988.03;;;22.20;20.21
83664;BME280;73634;47.068;15.426;2024-02-21T11:18:47;97988.19;;;20.95;21.15
83664;BME280;73634;47.068;15.426;2024-02-21T11:21:13;97987.31;;;21.15;21.18
83664;BME280;73634;47.068;15.426;2024-02-21T11:26:22;97987.44;;;20.04;22.20
83664;BME280;73634;47.068;15.426;2024-02-21T11:29:00;97982.88;;;21.19;20.80
83664;BME280;73634;47.068;15.426;2024-02-21T11:31:40;97967.50;;;21.89;20.06
83664;BME280;73634;47.068;15.426;2024-02-21T11:34:17;97960.44;;;22.69;19.30
83664;BME280;73634;47.068;15.426;2024-02-21T11:36:52;97947.94;;;22.69;18.61
83664;BME280;73634;47.068;15.426;2024-02-21T11:39:26;97943.06;;;19.44;22.38
83664;BME280;73634;47.068;15.426;2024-02-21T11:42:05;97942.44;;;17.25;25.63
83664;BME280;73634;47.068;15.426;2024-02-21T11:44:35;97937.81;;;17.57;25.16
83664;BME280;73634;47.068;15.426;2024-02-21T11:50:18;97928.97;;;16.61;27.07
83664;BME280;73634;47.068;15.426;2024-02-21T11:52:44;97920.75;;;15.34;27.92
83664;BME280;73634;47.068;15.426;2024-02-21T11:55:10;97913.84;;;15.38;28.49
83664;BME280;73634;47.068;15.426;2024-02-21T11:57:37;97902.97;;;15.89;27.62
83664;BME280;73634;47.068;15.426;2024-02-21T12:00:18;97906.75;;;15.39;28.64
83664;BME280;73634;47.068;15.426;2024-02-21T12:02:47;97905.41;;;14.50;29.27
83664;BME280;73634;47.068;15.426;2024-02-21T12:05:13;97906.28;;;13.99;30.18
83664;BME280;73634;47.068;15.426;2024-02-21T12:07:40;97901.34;;;14.44;29.79
83664;BME280;73634;47.068;15.426;2024-02-21T12:10:10;97897.06;;;15.61;28.19
83664;BME280;73634;47.068;15.426;2024-02-21T12:14:44;97898.41;;;16.04;27.02
83664;BME280;73634;47.068;15.426;2024-02-21T12:17:10;97898.97;;;15.11;28.70
83664;BME280;73634;47.068;15.426;2024-02-21T12:19:35;97890.91;;;15.44;28.58
83664;BME280;73634;47.068;15.426;2024-02-21T12:22:01;97885.47;;;16.47;27.45
83664;BME280;73634;47.068;15.426;2024-02-21T12:24:28;97877.75;;;16.90;26.29
83664;BME280;73634;47.068;15.426;2024-02-21T12:26:54;97869.81;;;16.64;26.38
83664;BME280;73634;47.068;15.426;2024-02-21T12:29:21;97863.66;;;16.29;27.23
83664;BME280;73634;47.068;15.426;2024-02-21T12:31:47;97857.47;;;16.82;26.51
83664;BME280;73634;47.068;15.426;2024-02-21T12:34:14;97842.47;;;17.77;25.33
83664;BME280;73634;47.068;15.426;2024-02-21T12:39:12;97842.00;;;17.84;25.25
83664;BME280;73634;47.068;15.426;2024-02-21T12:41:37;97836.34;;;20.84;21.54
83664;BME280;73634;47.068;15.426;2024-02-21T12:44:12;97830.75;;;22.01;20.39
83664;BME280;73634;47.068;15.426;2024-02-21T12:46:38;97840.41;;;20.08;21.86
83664;BME280;73634;47.068;15.426;2024-02-21T12:49:05;97839.03;;;20.59;21.49
83664;BME280;73634;47.068;15.426;2024-02-21T12:51:31;97830.25;;;18.49;23.84
83664;BME280;73634;47.068;15.426;2024-02-21T12:53:56;97832.47;;;18.00;24.64
83664;BME280;73634;47.068;15.426;2024-02-21T12:56:22;97826.38;;;17.70;25.42
83664;BME280;73634;47.068;15.426;2024-02-21T12:58:48;97825.44;;;18.21;25.33
83664;BME280;73634;47.068;15.426;2024-02-21T13:03:46;97820.94;;;24.06;17.85
83664;BME280;73634;47.068;15.426;2024-02-21T13:06:11;97810.75;;;23.24;18.15
83664;BME280;73634;47.068;15.426;2024-02-21T13:08:37;97807.81;;;22.90;18.38
83664;BME280;73634;47.068;15.426;2024-02-21T13:11:03;97811.00;;;18.57;23.16
83664;BME280;73634;47.068;15.426;2024-02-21T13:13:28;97806.72;;;19.15;22.52
83664;BME280;73634;47.068;15.426;2024-02-21T13:15:53;97803.47;;;19.51;22.07
83664;BME280;73634;47.068;15.426;2024-02-21T13:18:21;97801.66;;;18.89;22.70
83664;BME280;73634;47.068;15.426;2024-02-21T13:20:47;97797.50;;;16.84;24.93
83664;BME280;73634;47.068;15.426;2024-02-21T13:23:12;97798.78;;;16.29;25.62
83664;BME280;73634;47.068;15.426;2024-02-21T13:27:56;97787.78;;;17.02;25.18
83664;BME280;73634;47.068;15.426;2024-02-21T13:30:22;97785.47;;;17.90;24.46
83664;BME280;73634;47.068;15.426;2024-02-21T13:32:48;97776.78;;;18.48;23.06
83664;BME280;73634;47.068;15.426;2024-02-21T13:35:13;97773.59;;;19.05;22.44
83664;BME280;73634;47.068;15.426;2024-02-21T13:37:40;97763.78;;;18.22;23.15
83664;BME280;73634;47.068;15.426;2024-02-21T13:40:06;97781.28;;;16.99;24.77
83664;BME280;73634;47.068;15.426;2024-02-21T13:42:34;97774.78;;;16.71;25.38
83664;BME280;73634;47.068;15.426;2024-02-21T13:44:59;97763.75;;;17.29;24.51
83664;BME280;73634;47.068;15.426;2024-02-21T13:47:25;97766.41;;;17.29;24.62
83664;BME280;73634;47.068;15.426;2024-02-21T13:52:07;97764.59;;;16.95;25.12
83664;BME280;73634;47.068;15.426;2024-02-21T13:54:32;97765.47;;;15.90;26.50
83664;BME280;73634;47.068;15.426;2024-02-21T13:56:57;97756.66;;;15.86;26.95
83664;BME280;73634;47.068;15.426;2024-02-21T13:59:23;97751.53;;;15.81;27.16
83664;BME280;73634;47.068;15.426;2024-02-21T14:01:48;97747.81;;;14.62;29.13
83664;BME280;73634;47.068;15.426;2024-02-21T14:04:13;97741.56;;;14.22;29.16
83664;BME280;73634;47.068;15.426;2024-02-21T14:06:39;97736.91;;;14.05;29.56
83664;BME280;73634;47.068;15.426;2024-02-21T14:09:11;97736.94;;;13.78;30.38
83664;BME280;73634;47.068;15.426;2024-02-21T14:11:37;97723.94;;;14.00;30.02
83664;BME280;73634;47.068;15.426;2024-02-21T14:14:04;97722.00;;;14.19;29.76
83664;BME280;73634;47.068;15.426;2024-02-21T14:19:03;97722.09;;;13.46;31.24